sensor_id;sensor_type;location;lat;lon;timestamp;pressure;altitude;pressure_sealevel;temperature;humidity
113;BME280;45999;48.808;9.182;2024-03-22T00:01:46;98791.28;;;9.27;nan
113;BME280;45999;48.808;9.182;2024-03-22T00:04:12;98795.16;;;9.25;nan
113;BME280;45999;48.808;9.182;2024-03-22T00:06:42;98791.47;;;9.26;nan
113;BME280;45999;48.808;9.182;2024-03-22T00:09:09;98787.38;;;9.23;nan
113;BME280;45999;48.808;9.182;2024-03-22T00:11:36;98784.09;;;9.21;nan
113;BME280;45999;48.808;9.182;2024-03-22T00:14:02;98780.81;;;9.19;nan
113;BME280;45999;48.808;9.182;2024-03-22T00:16:28;98777.34;;;9.19;nan
113;BME280;45999;48.808;9.182;2024-03-22T00:18:54;98775.69;;;9.18;nan
113;BME280;45999;48.808;9.182;2024-03-22T00:21:22;98759.53;;;9.13;nan
113;BME280;45999;48.808;9.182;2024-03-22T00:23:47;98761.75;;;9.09;nan
113;BME280;45999;48.808;9.182;2024-03-22T00:26:14;98765.81;;;9.05;nan
113;BME280;45999;48.808;9.182;2024-03-22T00:28:39;98762.97;;;9.07;nan
113;BME280;45999;48.808;9.182;2024-03-22T00:31:06;98765.31;;;8.95;nan
113;BME280;45999;48.808;9.182;2024-03-22T00:33:31;98764.47;;;8.95;nan
113;BME280;45999;48.808;9.182;2024-03-22T00:35:58;98758.13;;;8.89;nan
113;BME280;45999;48.808;9.182;2024-03-22T00:38:23;98762.25;;;8.92;nan
113;BME280;45999;48.808;9.182;2024-03-22T00:40:50;98768.34;;;8.92;nan
113;BME280;45999;48.808;9.182;2024-03-22T00:43:15;98768.28;;;8.86;nan
113;BME280;45999;48.808;9.182;2024-03-22T00:45:41;98770.69;;;8.81;nan
113;BME280;45999;48.808;9.182;2024-03-22T00:48:07;98751.09;;;8.75;nan
113;BME280;45999;48.808;9.182;2024-03-22T00:50:33;98742.66;;;8.72;nan
113;BME280;45999;48.808;9.182;2024-03-22T00:53:00;98746.53;;;8.69;nan
113;BME280;45999;48.808;9.182;2024-03-22T00:55:27;98732.31;;;8.77;nan
113;BME280;45999;48.808;9.182;2024-03-22T00:57:54;98735.53;;;8.72;nan
113;BME280;45999;48.808;9.182;2024-03-22T01:00:19;98726.91;;;8.64;nan
113;BME280;45999;48.808;9.182;2024-03-22T01:02:45;98725.66;;;8.60;nan
113;BME280;45999;48.808;9.182;2024-03-22T01:05:11;98727.22;;;8.54;nan
113;BME280;45999;48.808;9.182;2024-03-22T01:07:37;98721.91;;;8.54;nan
113;BME280;45999;48.808;9.182;2024-03-22T01:10:04;98718.06;;;8.57;nan
113;BME280;45999;48.808;9.182;2024-03-22T01:12:30;98716.81;;;8.53;nan
113;BME280;45999;48.808;9.182;2024-03-22T01:14:56;98704.50;;;8.45;nan
113;BME280;45999;48.808;9.182;2024-03-22T01:17:23;98715.69;;;8.41;nan
113;BME280;45999;48.808;9.182;2024-03-22T01:19:48;98711.56;;;8.38;nan
113;BME280;45999;48.808;9.182;2024-03-22T01:22:15;98712.16;;;8.34;nan
113;BME280;45999;48.808;9.182;2024-03-22T01:24:41;98711.47;;;8.25;nan
113;BME280;45999;48.808;9.182;2024-03-22T01:27:07;98698.41;;;8.24;nan
113;BME280;45999;48.808;9.182;2024-03-22T01:29:32;98705.31;;;8.25;nan
113;BME280;45999;48.808;9.182;2024-03-22T01:31:59;98701.41;;;8.21;nan
113;BME280;45999;48.808;9.182;2024-03-22T01:34:24;98704.13;;;8.13;nan
113;BME280;45999;48.808;9.182;2024-03-22T01:36:51;98709.50;;;8.19;nan
113;BME280;45999;48.808;9.182;2024-03-22T01:39:16;98712.00;;;8.21;nan
113;BME280;45999;48.808;9.182;2024-03-22T01:41:43;98710.88;;;8.15;nan
113;BME280;45999;48.808;9.182;2024-03-22T01:44:09;98710.09;;;8.15;nan
113;BME280;45999;48.808;9.182;2024-03-22T01:46:37;98708.16;;;8.23;nan
113;BME280;45999;48.808;9.182;2024-03-22T01:49:02;98712.56;;;8.16;nan
113;BME280;45999;48.808;9.182;2024-03-22T01:51:29;98702.88;;;8.09;nan
113;BME280;45999;48.808;9.182;2024-03-22T01:53:55;98702.25;;;8.07;nan
113;BME280;45999;48.808;9.182;2024-03-22T01:56:21;98703.00;;;8.01;nan
113;BME280;45999;48.808;9.182;2024-03-22T01:58:47;98695.06;;;8.01;nan
113;BME280;45999;48.808;9.182;2024-03-22T02:01:14;98695.50;;;8.04;nan
113;BME280;45999;48.808;9.182;2024-03-22T02:03:40;98694.06;;;8.02;nan
113;BME280;45999;48.808;9.182;2024-03-22T02:06:06;98693.41;;;8.00;nan
113;BME280;45999;48.808;9.182;2024-03-22T02:08:31;98685.03;;;7.96;nan
113;BME280;45999;48.808;9.182;2024-03-22T02:10:58;98681.56;;;7.96;nan
113;BME280;45999;48.808;9.182;2024-03-22T02:13:23;98674.81;;;7.93;nan
113;BME280;45999;48.808;9.182;2024-03-22T02:15:49;98673.22;;;7.99;nan
113;BME280;45999;48.808;9.182;2024-03-22T02:18:15;98673.88;;;8.01;nan
113;BME280;45999;48.808;9.182;2024-03-22T02:20:41;98670.16;;;7.95;nan
113;BME280;45999;48.808;9.182;2024-03-22T02:23:07;98666.22;;;7.91;nan
113;BME280;45999;48.808;9.182;2024-03-22T02:25:33;98665.59;;;7.89;nan
113;BME280;45999;48.808;9.182;2024-03-22T02:27:59;98660.25;;;7.83;nan
113;BME280;45999;48.808;9.182;2024-03-22T02:30:24;98664.44;;;7.77;nan
113;BME280;45999;48.808;9.182;2024-03-22T02:32:51;98664.09;;;7.80;nan
113;BME280;45999;48.808;9.182;2024-03-22T02:35:16;98664.81;;;7.74;nan
113;BME280;45999;48.808;9.182;2024-03-22T02:37:42;98654.22;;;7.74;nan
113;BME280;45999;48.808;9.182;2024-03-22T02:40:08;98652.16;;;7.70;nan
113;BME280;45999;48.808;9.182;2024-03-22T02:42:35;98656.34;;;7.64;nan
113;BME280;45999;48.808;9.182;2024-03-22T02:45:00;98654.28;;;7.60;nan
113;BME280;45999;48.808;9.182;2024-03-22T02:47:26;98652.81;;;7.57;nan
113;BME280;45999;48.808;9.182;2024-03-22T02:49:52;98651.38;;;7.55;nan
113;BME280;45999;48.808;9.182;2024-03-22T02:52:18;98650.63;;;7.61;nan
113;BME280;45999;48.808;9.182;2024-03-22T02:54:43;98641.84;;;7.60;nan
113;BME280;45999;48.808;9.182;2024-03-22T02:57:10;98638.41;;;7.60;nan
113;BME280;45999;48.808;9.182;2024-03-22T02:59:35;98631.00;;;7.55;nan
113;BME280;45999;48.808;9.182;2024-03-22T03:02:01;98636.72;;;7.59;nan
113;BME280;45999;48.808;9.182;2024-03-22T03:04:27;98632.91;;;7.61;nan
113;BME280;45999;48.808;9.182;2024-03-22T03:06:53;98636.38;;;7.62;nan
113;BME280;45999;48.808;9.182;2024-03-22T03:09:18;98630.53;;;7.66;nan
113;BME280;45999;48.808;9.182;2024-03-22T03:11:45;98630.63;;;7.58;nan
113;BME280;45999;48.808;9.182;2024-03-22T03:14:11;98635.53;;;7.61;nan
113;BME280;45999;48.808;9.182;2024-03-22T03:16:37;98631.25;;;7.60;nan
113;BME280;45999;48.808;9.182;2024-03-22T03:19:02;98620.13;;;7.65;nan
113;BME280;45999;48.808;9.182;2024-03-22T03:21:28;98615.47;;;7.67;nan
113;BME280;45999;48.808;9.182;2024-03-22T03:23:54;98627.31;;;7.71;nan
113;BME280;45999;48.808;9.182;2024-03-22T03:26:20;98620.00;;;7.73;nan
113;BME280;45999;48.808;9.182;2024-03-22T03:28:45;98623.03;;;7.70;nan
113;BME280;45999;48.808;9.182;2024-03-22T03:31:12;98612.72;;;7.75;nan
113;BME280;45999;48.808;9.182;2024-03-22T03:33:37;98614.72;;;7.73;nan
113;BME280;45999;48.808;9.182;2024-03-22T03:36:04;98614.72;;;7.73;nan
113;BME280;45999;48.808;9.182;2024-03-22T03:38:29;98608.44;;;7.74;nan
113;BME280;45999;48.808;9.182;2024-03-22T03:40:55;98610.41;;;7.72;nan
113;BME280;45999;48.808;9.182;2024-03-22T03:43:21;98599.66;;;7.73;nan
113;BME280;45999;48.808;9.182;2024-03-22T03:45:47;98609.22;;;7.74;nan
113;BME280;45999;48.808;9.182;2024-03-22T03:48:13;98604.34;;;7.71;nan
113;BME280;45999;48.808;9.182;2024-03-22T03:50:39;98598.56;;;7.68;nan
113;BME280;45999;48.808;9.182;2024-03-22T03:53:04;98597.13;;;7.65;nan
113;BME280;45999;48.808;9.182;2024-03-22T03:55:31;98599.31;;;7.62;nan
113;BME280;45999;48.808;9.182;2024-03-22T03:57:56;98594.22;;;7.60;nan
113;BME280;45999;48.808;9.182;2024-03-22T04:00:22;98605.31;;;7.70;nan
113;BME280;45999;48.808;9.182;2024-03-22T04:02:50;98604.69;;;7.68;nan
113;BME280;45999;48.808;9.182;2024-03-22T04:05:17;98601.22;;;7.68;nan
113;BME280;45999;48.808;9.182;2024-03-22T04:07:42;98604.88;;;7.67;nan
113;BME280;45999;48.808;9.182;2024-03-22T04:10:09;98598.81;;;7.73;nan
113;BME280;45999;48.808;9.182;2024-03-22T04:12:35;98600.97;;;7.63;nan
113;BME280;45999;48.808;9.182;2024-03-22T04:15:01;98598.72;;;7.60;nan
113;BME280;45999;48.808;9.182;2024-03-22T04:17:27;98597.34;;;7.64;nan
113;BME280;45999;48.808;9.182;2024-03-22T04:19:53;98588.38;;;7.65;nan
113;BME280;45999;48.808;9.182;2024-03-22T04:22:19;98588.81;;;7.68;nan
113;BME280;45999;48.808;9.182;2024-03-22T04:24:44;98595.50;;;7.64;nan
113;BME280;45999;48.808;9.182;2024-03-22T04:27:11;98598.25;;;7.56;nan
113;BME280;45999;48.808;9.182;2024-03-22T04:29:36;98589.50;;;7.56;nan
113;BME280;45999;48.808;9.182;2024-03-22T04:32:03;98586.94;;;7.62;nan
113;BME280;45999;48.808;9.182;2024-03-22T04:34:28;98591.66;;;7.67;nan
113;BME280;45999;48.808;9.182;2024-03-22T04:36:54;98593.16;;;7.76;nan
113;BME280;45999;48.808;9.182;2024-03-22T04:39:22;98591.41;;;7.83;nan
113;BME280;45999;48.808;9.182;2024-03-22T04:41:49;98596.91;;;7.81;nan
113;BME280;45999;48.808;9.182;2024-03-22T04:44:14;98599.97;;;7.85;nan
113;BME280;45999;48.808;9.182;2024-03-22T04:46:41;98607.16;;;7.91;nan
113;BME280;45999;48.808;9.182;2024-03-22T04:49:07;98611.47;;;7.92;nan
113;BME280;45999;48.808;9.182;2024-03-22T04:51:33;98607.44;;;7.96;nan
113;BME280;45999;48.808;9.182;2024-03-22T04:53:58;98601.75;;;7.99;nan
113;BME280;45999;48.808;9.182;2024-03-22T04:56:25;98606.84;;;8.00;nan
113;BME280;45999;48.808;9.182;2024-03-22T04:58:50;98602.22;;;8.02;nan
113;BME280;45999;48.808;9.182;2024-03-22T05:01:16;98601.19;;;8.03;nan
113;BME280;45999;48.808;9.182;2024-03-22T05:03:42;98604.47;;;8.05;nan
113;BME280;45999;48.808;9.182;2024-03-22T05:06:08;98610.16;;;8.02;nan
113;BME280;45999;48.808;9.182;2024-03-22T05:08:34;98594.63;;;7.99;nan
113;BME280;45999;48.808;9.182;2024-03-22T05:11:00;98595.44;;;8.00;nan
113;BME280;45999;48.808;9.182;2024-03-22T05:13:25;98602.00;;;8.04;nan
113;BME280;45999;48.808;9.182;2024-03-22T05:15:52;98601.13;;;7.97;nan
113;BME280;45999;48.808;9.182;2024-03-22T05:18:18;98607.22;;;7.97;nan
113;BME280;45999;48.808;9.182;2024-03-22T05:20:44;98592.16;;;7.98;nan
113;BME280;45999;48.808;9.182;2024-03-22T05:23:10;98595.66;;;7.98;nan
113;BME280;45999;48.808;9.182;2024-03-22T05:25:36;98595.84;;;7.97;nan
113;BME280;45999;48.808;9.182;2024-03-22T05:28:02;98598.09;;;8.00;nan
113;BME280;45999;48.808;9.182;2024-03-22T05:30:28;98586.50;;;8.01;nan
113;BME280;45999;48.808;9.182;2024-03-22T05:32:53;98583.28;;;8.05;nan
113;BME280;45999;48.808;9.182;2024-03-22T05:35:20;98595.50;;;8.06;nan
113;BME280;45999;48.808;9.182;2024-03-22T05:37:45;98588.00;;;8.10;nan
113;BME280;45999;48.808;9.182;2024-03-22T05:40:12;98581.38;;;8.20;nan
113;BME280;45999;48.808;9.182;2024-03-22T05:42:37;98577.34;;;8.24;nan
113;BME280;45999;48.808;9.182;2024-03-22T05:45:04;98578.59;;;8.28;nan
113;BME280;45999;48.808;9.182;2024-03-22T05:47:29;98568.84;;;8.29;nan
113;BME280;45999;48.808;9.182;2024-03-22T05:49:58;98571.75;;;8.34;nan
113;BME280;45999;48.808;9.182;2024-03-22T05:52:23;98566.06;;;8.37;nan
113;BME280;45999;48.808;9.182;2024-03-22T05:54:49;98567.06;;;8.36;nan
113;BME280;45999;48.808;9.182;2024-03-22T05:57:15;98565.03;;;8.38;nan
113;BME280;45999;48.808;9.182;2024-03-22T05:59:41;98565.22;;;8.36;nan
113;BME280;45999;48.808;9.182;2024-03-22T06:02:07;98559.31;;;8.34;nan
113;BME280;45999;48.808;9.182;2024-03-22T06:04:33;98553.81;;;8.36;nan
113;BME280;45999;48.808;9.182;2024-03-22T06:06:59;98556.06;;;8.39;nan
113;BME280;45999;48.808;9.182;2024-03-22T06:09:28;98545.72;;;8.44;nan
113;BME280;45999;48.808;9.182;2024-03-22T06:12:02;98549.19;;;8.44;nan
113;BME280;45999;48.808;9.182;2024-03-22T06:14:29;98550.47;;;8.48;nan
113;BME280;45999;48.808;9.182;2024-03-22T06:16:54;98560.84;;;8.50;nan
113;BME280;45999;48.808;9.182;2024-03-22T06:19:21;98552.50;;;8.53;nan
113;BME280;45999;48.808;9.182;2024-03-22T06:21:46;98555.56;;;8.56;nan
113;BME280;45999;48.808;9.182;2024-03-22T06:24:12;98547.44;;;8.58;nan
113;BME280;45999;48.808;9.182;2024-03-22T06:26:38;98551.75;;;8.65;nan
113;BME280;45999;48.808;9.182;2024-03-22T06:29:04;98555.25;;;8.66;nan
113;BME280;45999;48.808;9.182;2024-03-22T06:31:29;98553.25;;;8.74;nan
113;BME280;45999;48.808;9.182;2024-03-22T06:33:56;98552.88;;;8.77;nan
113;BME280;45999;48.808;9.182;2024-03-22T06:36:27;98552.91;;;8.84;nan
113;BME280;45999;48.808;9.182;2024-03-22T06:38:53;98547.59;;;8.84;nan
113;BME280;45999;48.808;9.182;2024-03-22T06:41:19;98546.25;;;8.94;nan
113;BME280;45999;48.808;9.182;2024-03-22T06:43:45;98547.91;;;9.02;nan
113;BME280;45999;48.808;9.182;2024-03-22T06:46:11;98548.53;;;9.10;nan
113;BME280;45999;48.808;9.182;2024-03-22T06:48:37;98540.81;;;9.15;nan
113;BME280;45999;48.808;9.182;2024-03-22T06:51:02;98545.31;;;9.15;nan
113;BME280;45999;48.808;9.182;2024-03-22T06:53:29;98545.31;;;9.15;nan
113;BME280;45999;48.808;9.182;2024-03-22T06:55:54;98538.78;;;9.17;nan
113;BME280;45999;48.808;9.182;2024-03-22T06:58:20;98535.75;;;9.27;nan
113;BME280;45999;48.808;9.182;2024-03-22T07:00:46;98547.81;;;9.36;nan
113;BME280;45999;48.808;9.182;2024-03-22T07:03:12;98534.34;;;9.37;nan
113;BME280;45999;48.808;9.182;2024-03-22T07:05:37;98551.72;;;9.40;nan
113;BME280;45999;48.808;9.182;2024-03-22T07:08:04;98548.28;;;9.46;nan
113;BME280;45999;48.808;9.182;2024-03-22T07:10:30;98537.25;;;9.49;nan
113;BME280;45999;48.808;9.182;2024-03-22T07:12:56;98544.66;;;9.60;nan
113;BME280;45999;48.808;9.182;2024-03-22T07:15:24;98533.81;;;9.74;nan
113;BME280;45999;48.808;9.182;2024-03-22T07:17:51;98535.28;;;9.77;nan
113;BME280;45999;48.808;9.182;2024-03-22T07:20:17;98533.84;;;9.68;nan
113;BME280;45999;48.808;9.182;2024-03-22T07:22:44;98544.69;;;9.73;nan
113;BME280;45999;48.808;9.182;2024-03-22T07:25:09;98528.78;;;9.86;nan
113;BME280;45999;48.808;9.182;2024-03-22T07:27:36;98529.16;;;9.89;nan
113;BME280;45999;48.808;9.182;2024-03-22T07:30:03;98524.03;;;9.81;nan
113;BME280;45999;48.808;9.182;2024-03-22T07:32:30;98516.09;;;9.88;nan
113;BME280;45999;48.808;9.182;2024-03-22T07:34:55;98518.56;;;9.89;nan
113;BME280;45999;48.808;9.182;2024-03-22T07:37:22;98519.34;;;9.96;nan
113;BME280;45999;48.808;9.182;2024-03-22T07:39:47;98514.72;;;10.05;nan
113;BME280;45999;48.808;9.182;2024-03-22T07:42:14;98525.53;;;10.23;nan
113;BME280;45999;48.808;9.182;2024-03-22T07:44:39;98512.84;;;10.18;nan
113;BME280;45999;48.808;9.182;2024-03-22T07:47:06;98510.19;;;10.38;nan
113;BME280;45999;48.808;9.182;2024-03-22T07:49:31;98508.97;;;10.27;nan
113;BME280;45999;48.808;9.182;2024-03-22T07:51:59;98508.34;;;10.45;nan
113;BME280;45999;48.808;9.182;2024-03-22T07:54:24;98507.50;;;10.57;nan
113;BME280;45999;48.808;9.182;2024-03-22T07:56:51;98507.50;;;10.57;nan
113;BME280;45999;48.808;9.182;2024-03-22T07:59:16;98516.84;;;10.86;nan
113;BME280;45999;48.808;9.182;2024-03-22T08:01:42;98517.22;;;10.96;nan
113;BME280;45999;48.808;9.182;2024-03-22T08:04:08;98515.97;;;10.98;nan
113;BME280;45999;48.808;9.182;2024-03-22T08:06:34;98518.59;;;11.05;nan
113;BME280;45999;48.808;9.182;2024-03-22T08:08:59;98518.75;;;11.17;nan
113;BME280;45999;48.808;9.182;2024-03-22T08:11:27;98520.38;;;11.24;nan
113;BME280;45999;48.808;9.182;2024-03-22T08:13:53;98518.41;;;11.44;nan
113;BME280;45999;48.808;9.182;2024-03-22T08:16:27;98510.56;;;11.56;nan
113;BME280;45999;48.808;9.182;2024-03-22T08:18:52;98497.34;;;12.05;nan
113;BME280;45999;48.808;9.182;2024-03-22T08:21:19;98498.69;;;12.38;nan
113;BME280;45999;48.808;9.182;2024-03-22T08:23:44;98498.91;;;12.12;nan
113;BME280;45999;48.808;9.182;2024-03-22T08:26:11;98497.44;;;12.41;nan
113;BME280;45999;48.808;9.182;2024-03-22T08:28:36;98491.84;;;12.67;nan
113;BME280;45999;48.808;9.182;2024-03-22T08:31:04;98494.72;;;12.65;nan
113;BME280;45999;48.808;9.182;2024-03-22T08:33:30;98488.75;;;12.88;nan
113;BME280;45999;48.808;9.182;2024-03-22T08:35:56;98486.94;;;13.36;nan
113;BME280;45999;48.808;9.182;2024-03-22T08:38:22;98486.78;;;13.60;nan
113;BME280;45999;48.808;9.182;2024-03-22T08:40:50;98484.25;;;13.65;nan
113;BME280;45999;48.808;9.182;2024-03-22T08:43:15;98485.22;;;13.41;nan
113;BME280;45999;48.808;9.182;2024-03-22T08:45:42;98477.41;;;13.69;nan
113;BME280;45999;48.808;9.182;2024-03-22T08:48:07;98476.63;;;13.92;nan
113;BME280;45999;48.808;9.182;2024-03-22T08:50:34;98470.47;;;13.80;nan
113;BME280;45999;48.808;9.182;2024-03-22T08:52:59;98468.13;;;13.72;nan
113;BME280;45999;48.808;9.182;2024-03-22T08:55:28;98468.19;;;13.54;nan
113;BME280;45999;48.808;9.182;2024-03-22T08:57:53;98473.75;;;13.52;nan
113;BME280;45999;48.808;9.182;2024-03-22T09:00:20;98470.50;;;13.91;nan
113;BME280;45999;48.808;9.182;2024-03-22T09:02:45;98463.72;;;13.77;nan
113;BME280;45999;48.808;9.182;2024-03-22T09:05:12;98457.59;;;13.88;nan
113;BME280;45999;48.808;9.182;2024-03-22T09:07:38;98461.84;;;13.66;nan
113;BME280;45999;48.808;9.182;2024-03-22T09:10:05;98459.75;;;13.68;nan
113;BME280;45999;48.808;9.182;2024-03-22T09:12:32;98458.72;;;13.81;nan
113;BME280;45999;48.808;9.182;2024-03-22T09:14:57;98451.50;;;14.22;nan
113;BME280;45999;48.808;9.182;2024-03-22T09:17:24;98452.19;;;14.41;nan
113;BME280;45999;48.808;9.182;2024-03-22T09:19:49;98454.97;;;14.34;nan
113;BME280;45999;48.808;9.182;2024-03-22T09:22:16;98451.28;;;14.35;nan
113;BME280;45999;48.808;9.182;2024-03-22T09:24:41;98447.56;;;14.25;nan
113;BME280;45999;48.808;9.182;2024-03-22T09:27:07;98445.66;;;14.37;nan
113;BME280;45999;48.808;9.182;2024-03-22T09:29:36;98447.53;;;14.59;nan
113;BME280;45999;48.808;9.182;2024-03-22T09:32:02;98443.56;;;14.62;nan
113;BME280;45999;48.808;9.182;2024-03-22T09:34:28;98439.13;;;14.79;nan
113;BME280;45999;48.808;9.182;2024-03-22T09:36:55;98440.44;;;15.04;nan
113;BME280;45999;48.808;9.182;2024-03-22T09:39:21;98426.66;;;15.52;nan
113;BME280;45999;48.808;9.182;2024-03-22T09:41:48;98427.44;;;15.52;nan
113;BME280;45999;48.808;9.182;2024-03-22T09:44:18;98418.06;;;15.66;nan
113;BME280;45999;48.808;9.182;2024-03-22T09:46:46;98417.72;;;15.79;nan
113;BME280;45999;48.808;9.182;2024-03-22T09:49:12;98411.97;;;15.87;nan
113;BME280;45999;48.808;9.182;2024-03-22T09:51:39;98412.03;;;16.09;nan
113;BME280;45999;48.808;9.182;2024-03-22T09:54:06;98399.47;;;15.93;nan
113;BME280;45999;48.808;9.182;2024-03-22T09:56:35;98402.16;;;15.93;nan
113;BME280;45999;48.808;9.182;2024-03-22T09:59:03;98392.38;;;16.03;nan
113;BME280;45999;48.808;9.182;2024-03-22T10:01:30;98394.09;;;15.76;nan
113;BME280;45999;48.808;9.182;2024-03-22T10:03:56;98388.56;;;15.99;nan
113;BME280;45999;48.808;9.182;2024-03-22T10:06:23;98383.81;;;16.39;nan
113;BME280;45999;48.808;9.182;2024-03-22T10:08:48;98381.81;;;16.51;nan
113;BME280;45999;48.808;9.182;2024-03-22T10:11:15;98374.34;;;16.53;nan
113;BME280;45999;48.808;9.182;2024-03-22T10:13:41;98375.91;;;16.71;nan
113;BME280;45999;48.808;9.182;2024-03-22T10:16:08;98370.28;;;16.72;nan
113;BME280;45999;48.808;9.182;2024-03-22T10:18:33;98372.41;;;16.32;nan
113;BME280;45999;48.808;9.182;2024-03-22T10:23:26;98359.75;;;16.66;nan
113;BME280;45999;48.808;9.182;2024-03-22T10:25:52;98363.47;;;16.27;nan
113;BME280;45999;48.808;9.182;2024-03-22T10:28:18;98357.31;;;16.26;nan
113;BME280;45999;48.808;9.182;2024-03-22T10:30:44;98346.19;;;16.77;nan
113;BME280;45999;48.808;9.182;2024-03-22T10:33:10;98350.81;;;16.22;nan
113;BME280;45999;48.808;9.182;2024-03-22T10:35:39;98338.88;;;16.13;nan
113;BME280;45999;48.808;9.182;2024-03-22T10:38:06;98327.97;;;16.20;nan
113;BME280;45999;48.808;9.182;2024-03-22T10:40:36;98329.00;;;16.35;nan
113;BME280;45999;48.808;9.182;2024-03-22T10:43:02;98322.50;;;16.74;nan
113;BME280;45999;48.808;9.182;2024-03-22T10:45:29;98314.38;;;16.91;nan
113;BME280;45999;48.808;9.182;2024-03-22T10:47:55;98311.78;;;16.53;nan
113;BME280;45999;48.808;9.182;2024-03-22T10:50:22;98310.47;;;16.55;nan
113;BME280;45999;48.808;9.182;2024-03-22T10:52:56;98309.47;;;16.61;nan
113;BME280;45999;48.808;9.182;2024-03-22T10:55:27;98315.66;;;16.62;nan
113;BME280;45999;48.808;9.182;2024-03-22T10:57:56;98303.75;;;16.53;nan
113;BME280;45999;48.808;9.182;2024-03-22T11:00:30;98292.94;;;16.48;nan
113;BME280;45999;48.808;9.182;2024-03-22T11:02:56;98291.97;;;16.37;nan
113;BME280;45999;48.808;9.182;2024-03-22T11:05:23;98286.50;;;16.70;nan
113;BME280;45999;48.808;9.182;2024-03-22T11:07:59;98284.56;;;16.92;nan
113;BME280;45999;48.808;9.182;2024-03-22T11:10:28;98281.94;;;16.97;nan
113;BME280;45999;48.808;9.182;2024-03-22T11:12:55;98279.88;;;17.36;nan
113;BME280;45999;48.808;9.182;2024-03-22T11:15:22;98277.28;;;17.14;nan
113;BME280;45999;48.808;9.182;2024-03-22T11:17:47;98285.78;;;17.06;nan
113;BME280;45999;48.808;9.182;2024-03-22T11:20:15;98267.66;;;16.92;nan
113;BME280;45999;48.808;9.182;2024-03-22T11:22:41;98276.28;;;16.94;nan
113;BME280;45999;48.808;9.182;2024-03-22T11:25:07;98270.31;;;17.18;nan
113;BME280;45999;48.808;9.182;2024-03-22T11:27:32;98260.00;;;17.37;nan
113;BME280;45999;48.808;9.182;2024-03-22T11:29:59;98260.47;;;17.60;nan
113;BME280;45999;48.808;9.182;2024-03-22T11:32:25;98254.91;;;17.72;nan
113;BME280;45999;48.808;9.182;2024-03-22T11:34:53;98244.84;;;18.04;nan
113;BME280;45999;48.808;9.182;2024-03-22T11:37:19;98243.59;;;17.70;nan
113;BME280;45999;48.808;9.182;2024-03-22T11:39:45;98244.44;;;17.70;nan
113;BME280;45999;48.808;9.182;2024-03-22T11:42:11;98234.16;;;17.31;nan
113;BME280;45999;48.808;9.182;2024-03-22T11:44:38;98222.25;;;18.00;nan
113;BME280;45999;48.808;9.182;2024-03-22T11:47:05;98215.97;;;18.36;nan
113;BME280;45999;48.808;9.182;2024-03-22T11:49:31;98220.50;;;18.30;nan
113;BME280;45999;48.808;9.182;2024-03-22T11:51:57;98208.19;;;18.44;nan
113;BME280;45999;48.808;9.182;2024-03-22T11:54:23;98205.53;;;18.59;nan
113;BME280;45999;48.808;9.182;2024-03-22T11:56:49;98207.81;;;18.21;nan
113;BME280;45999;48.808;9.182;2024-03-22T11:59:19;98201.72;;;17.79;nan
113;BME280;45999;48.808;9.182;2024-03-22T12:01:45;98208.53;;;18.06;nan
113;BME280;45999;48.808;9.182;2024-03-22T12:04:11;98195.50;;;17.78;nan
113;BME280;45999;48.808;9.182;2024-03-22T12:06:44;98188.72;;;17.66;nan
113;BME280;45999;48.808;9.182;2024-03-22T12:09:14;98192.06;;;17.88;nan
113;BME280;45999;48.808;9.182;2024-03-22T12:11:40;98182.13;;;17.88;nan
113;BME280;45999;48.808;9.182;2024-03-22T12:14:06;98173.19;;;18.39;nan
113;BME280;45999;48.808;9.182;2024-03-22T12:16:32;98169.53;;;18.04;nan
113;BME280;45999;48.808;9.182;2024-03-22T12:18:58;98170.38;;;18.14;nan
113;BME280;45999;48.808;9.182;2024-03-22T12:21:24;98163.41;;;18.23;nan
113;BME280;45999;48.808;9.182;2024-03-22T12:23:50;98161.41;;;18.80;nan
113;BME280;45999;48.808;9.182;2024-03-22T12:26:16;98146.41;;;18.13;nan
113;BME280;45999;48.808;9.182;2024-03-22T12:28:43;98135.97;;;18.26;nan
113;BME280;45999;48.808;9.182;2024-03-22T12:31:08;98132.81;;;18.34;nan
113;BME280;45999;48.808;9.182;2024-03-22T12:33:35;98131.22;;;18.43;nan
113;BME280;45999;48.808;9.182;2024-03-22T12:36:00;98129.56;;;18.42;nan
113;BME280;45999;48.808;9.182;2024-03-22T12:38:27;98121.44;;;18.27;nan
113;BME280;45999;48.808;9.182;2024-03-22T12:40:52;98117.75;;;18.48;nan
113;BME280;45999;48.808;9.182;2024-03-22T12:43:18;98115.84;;;18.54;nan
113;BME280;45999;48.808;9.182;2024-03-22T12:45:44;98101.59;;;18.48;nan
113;BME280;45999;48.808;9.182;2024-03-22T12:48:11;98106.97;;;18.83;nan
113;BME280;45999;48.808;9.182;2024-03-22T12:50:36;98102.66;;;18.92;nan
113;BME280;45999;48.808;9.182;2024-03-22T12:53:03;98090.25;;;19.11;nan
113;BME280;45999;48.808;9.182;2024-03-22T12:55:29;98098.09;;;18.73;nan
113;BME280;45999;48.808;9.182;2024-03-22T12:57:57;98094.56;;;18.87;nan
113;BME280;45999;48.808;9.182;2024-03-22T13:00:22;98090.56;;;18.65;nan
113;BME280;45999;48.808;9.182;2024-03-22T13:02:49;98082.72;;;18.73;nan
113;BME280;45999;48.808;9.182;2024-03-22T13:05:14;98079.78;;;18.80;nan
113;BME280;45999;48.808;9.182;2024-03-22T13:07:42;98076.00;;;18.71;nan
113;BME280;45999;48.808;9.182;2024-03-22T13:10:08;98071.16;;;18.88;nan
113;BME280;45999;48.808;9.182;2024-03-22T13:12:34;98062.75;;;19.29;nan
113;BME280;45999;48.808;9.182;2024-03-22T13:15:00;98059.22;;;19.34;nan
113;BME280;45999;48.808;9.182;2024-03-22T13:17:27;98059.78;;;19.36;nan
113;BME280;45999;48.808;9.182;2024-03-22T13:19:52;98059.31;;;18.69;nan
113;BME280;45999;48.808;9.182;2024-03-22T13:22:18;98048.81;;;18.62;nan
113;BME280;45999;48.808;9.182;2024-03-22T13:24:45;98043.97;;;18.79;nan
113;BME280;45999;48.808;9.182;2024-03-22T13:27:12;98044.97;;;19.13;nan
113;BME280;45999;48.808;9.182;2024-03-22T13:29:38;98039.34;;;19.05;nan
113;BME280;45999;48.808;9.182;2024-03-22T13:32:05;98027.09;;;19.42;nan
113;BME280;45999;48.808;9.182;2024-03-22T13:34:32;98025.78;;;19.35;nan
113;BME280;45999;48.808;9.182;2024-03-22T13:36:58;98029.63;;;19.14;nan
113;BME280;45999;48.808;9.182;2024-03-22T13:39:23;98027.19;;;19.07;nan
113;BME280;45999;48.808;9.182;2024-03-22T13:41:50;98020.25;;;18.81;nan
113;BME280;45999;48.808;9.182;2024-03-22T13:44:15;98018.66;;;18.75;nan
113;BME280;45999;48.808;9.182;2024-03-22T13:46:42;98010.28;;;18.82;nan
113;BME280;45999;48.808;9.182;2024-03-22T13:49:14;98018.66;;;18.70;nan